Time;durP1;ratioP1;P1;durP2;ratioP2;P2;SDS_P1;SDS_P2;PMS_P1;PMS_P2;Temp;Humidity;BMP_temperature;BMP_pressure;BME280_temperature;BME280_humidity;BME280_pressure;Samples;Min_cycle;Max_cycle;Signal;HPM_P1;HPM_P2
2021/05/16 00:00:47;;;;;;;;;;;;;;;;;;1476164;40;7031;-60
2021/05/16 00:01:49;;;;;;;;;;;;;;;;;;1477693;40;7003;-62
2021/05/16 00:02:55;;;;;;;;;;;;;;;;;;1478929;40;7061;-65
2021/05/16 00:03:58;;;;;;;;;;;;;;;;;;1475287;40;7007;-62
2021/05/16 00:05:00;;;;;;;;;;;;;;;;;;1479023;40;7035;-62
2021/05/16 00:06:03;;;;;;;;;;;;;;;;;;1475922;40;7037;-63
2021/05/16 00:07:05;;;;;;;;;;;;;;;;;;1474637;40;7090;-63
2021/05/16 00:08:08;;;;;;;;;;;;;;;;;;1477622;40;7953;-66
2021/05/16 00:09:11;;;;;;;;;;;;;;;;;;1478514;40;7035;-62
2021/05/16 00:10:15;;;;;;;;;;;;;;;;;;1475293;40;7070;-63
2021/05/16 00:11:18;;;;;;;;;;;;;;;;;;1474588;40;7121;-61
2021/05/16 00:12:21;;;;;;;;;;;;;;;;;;1474609;40;7900;-63
2021/05/16 00:13:24;;;;;;;;;;;;;;;;;;1474476;40;7039;-65
2021/05/16 00:14:27;;;;;;;;;;;;;;;;;;1475407;40;7039;-64
2021/05/16 00:15:30;;;;;;;;;;;;;;;;;;1478884;40;7035;-61
2021/05/16 00:16:33;;;;;;;;;;;;;;;;;;1478681;40;7113;-64
2021/05/16 00:17:36;;;;;;;;;;;;;;;;;;1476734;40;7035;-62
2021/05/16 00:18:38;;;;;;;;;;;;;;;;;;1477814;40;7012;-63
2021/05/16 00:19:41;;;;;;;;;;;;;;;;;;1477801;40;7078;-63
2021/05/16 00:20:44;;;;;;;;;;;;;;;;;;1478145;40;7954;-62
2021/05/16 00:21:47;;;;;;;;;;;;;;;;;;1475384;40;7007;-62
2021/05/16 00:22:50;;;;;;;;;;;;;;;;;;1474876;40;7939;-63
2021/05/16 00:23:52;;;;;;;;;;;;;;;;;;1474956;40;6999;-62
2021/05/16 00:24:55;;;;;;;;;;;;;;;;;;1475513;40;7039;-61
2021/05/16 00:25:57;;;;;;;;;;;;;;;;;;1475057;40;7008;-63
2021/05/16 00:26:59;;;;;;;;;;;;;;;;;;1474913;40;7049;-66
2021/05/16 00:28:02;;;;;;;;;;;;;;;;;;1476716;40;7295;-62
2021/05/16 00:29:05;;;;;;;;;;;;;;;;;;1474805;40;7000;-62
2021/05/16 00:30:09;;;;;;;;;;;;;;;;;;1475150;40;8881;-62
2021/05/16 00:31:12;;;;;;;;;;;;;;;;;;1478688;40;7849;-62
2021/05/16 00:32:14;;;;;;;;;;;;;;;;;;1478447;40;7039;-65
2021/05/16 00:33:16;;;;;;;;;;;;;;;;;;1479163;40;7015;-67
2021/05/16 00:34:19;;;;;;;;;;;;;;;;;;1479150;40;7030;-63
2021/05/16 00:35:23;;;;;;;;;;;;;;;;;;1478463;40;7024;-62
2021/05/16 00:36:25;;;;;;;;;;;;;;;;;;1478880;40;7928;-61
2021/05/16 00:37:28;;;;;;;;;;;;;;;;;;1479139;40;7012;-63
2021/05/16 00:38:30;;;;;;;;;;;;;;;;;;1479293;40;7054;-62
2021/05/16 00:39:33;;;;;;;;;;;;;;;;;;1479150;40;8859;-60
2021/05/16 00:40:35;;;;;;;;;;;;;;;;;;1479076;40;7083;-62
2021/05/16 00:41:37;;;;;;;;;;;;;;;;;;1477811;40;7027;-63
2021/05/16 00:42:40;;;;;;;;;;;;;;;;;;1478944;40;7203;-64
2021/05/16 00:43:43;;;;;;;;;;;;;;;;;;1479271;40;7027;-61
2021/05/16 00:45:04;;;;;;;;;;;;;;;;;;1479396;40;7007;-63
2021/05/16 00:46:09;;;;;;;;;;;;;;;;;;1478025;40;7109;-63
2021/05/16 00:47:11;;;;;;;;;;;;;;;;;;1475127;40;7031;-61
2021/05/16 00:48:14;;;;;;;;;;;;;;;;;;1475797;40;7007;-64
2021/05/16 00:49:16;;;;;;;;;;;;;;;;;;1474940;40;7031;-66
2021/05/16 00:50:20;;;;;;;;;;;;;;;;;;1475207;40;7007;-63
2021/05/16 00:51:23;;;;;;;;;;;;;;;;;;1474965;40;7031;-62
2021/05/16 00:52:26;;;;;;;;;;;;;;;;;;1475073;40;7011;-64
2021/05/16 00:53:29;;;;;;;;;;;;;;;;;;1475124;40;7039;-62
2021/05/16 00:54:31;;;;;;;;;;;;;;;;;;1475275;40;7003;-62
2021/05/16 00:55:34;;;;;;;;;;;;;;;;;;1475085;40;7008;-64
2021/05/16 00:56:36;;;;;;;;;;;;;;;;;;1475159;40;7080;-66
2021/05/16 00:57:39;;;;;;;;;;;;;;;;;;1475015;40;7008;-61
2021/05/16 00:58:41;;;;;;;;;;;;;;;;;;1475075;40;7004;-61
2021/05/16 00:59:44;;;;;;;;;;;;;;;;;;1474976;40;7044;-60
2021/05/16 01:00:46;;;;;;;;;;;;;;;;;;1478385;40;7067;-63
2021/05/16 01:01:50;;;;;;;;;;;;;;;;;;1476003;40;7035;-64
2021/05/16 01:02:53;;;;;;;;;;;;;;;;;;1475213;40;7058;-62
2021/05/16 01:03:57;;;;;;;;;;;;;;;;;;1475110;40;7043;-63
2021/05/16 01:04:59;;;;;;;;;;;;;;;;;;1475553;40;7039;-62
2021/05/16 01:06:02;;;;;;;;;;;;;;;;;;1475976;40;7004;-63
2021/05/16 01:07:04;;;;;;;;;;;;;;;;;;1478957;40;6999;-63
2021/05/16 01:08:07;;;;;;;;;;;;;;;;;;1479207;40;7000;-62
2021/05/16 01:09:11;;;;;;;;;;;;;;;;;;1479375;40;7123;-62
2021/05/16 01:10:14;;;;;;;;;;;;;;;;;;1479023;40;7000;-64
2021/05/16 01:11:17;;;;;;;;;;;;;;;;;;1479664;40;7940;-62
2021/05/16 01:12:19;;;;;;;;;;;;;;;;;;1475385;40;7012;-61
2021/05/16 01:13:24;;;;;;;;;;;;;;;;;;1478621;40;8082;-60
2021/05/16 01:14:46;;;;;;;;;;;;;;;;;;1479231;40;7008;-62
2021/05/16 01:15:49;;;;;;;;;;;;;;;;;;1479275;40;7205;-62
2021/05/16 01:16:51;;;;;;;;;;;;;;;;;;1475899;40;7919;-62
2021/05/16 01:17:54;;;;;;;;;;;;;;;;;;1475919;40;7020;-60
2021/05/16 01:18:56;;;;;;;;;;;;;;;;;;1475107;40;7039;-60
2021/05/16 01:19:58;;;;;;;;;;;;;;;;;;1478689;40;7003;-59
2021/05/16 01:21:01;;;;;;;;;;;;;;;;;;1478679;40;7052;-60
2021/05/16 01:22:06;;;;;;;;;;;;;;;;;;1474678;40;7220;-62
2021/05/16 01:23:11;;;;;;;;;;;;;;;;;;1474615;40;7036;-65
2021/05/16 01:24:16;;;;;;;;;;;;;;;;;;1474820;40;7927;-62
2021/05/16 01:25:18;;;;;;;;;;;;;;;;;;1474461;40;7061;-61
2021/05/16 01:26:20;;;;;;;;;;;;;;;;;;1478477;40;7027;-63
2021/05/16 01:27:23;;;;;;;;;;;;;;;;;;1482148;40;7007;-62
2021/05/16 01:28:26;;;;;;;;;;;;;;;;;;1478749;40;7039;-61
2021/05/16 01:29:29;;;;;;;;;;;;;;;;;;1478272;40;7136;-64
2021/05/16 01:30:32;;;;;;;;;;;;;;;;;;1479038;40;7183;-63
2021/05/16 01:31:34;;;;;;;;;;;;;;;;;;1475426;40;7031;-63
2021/05/16 01:32:36;;;;;;;;;;;;;;;;;;1475369;40;7012;-64
2021/05/16 01:33:39;;;;;;;;;;;;;;;;;;1478652;40;7019;-64
2021/05/16 01:34:42;;;;;;;;;;;;;;;;;;1478782;40;7111;-63
2021/05/16 01:35:45;;;;;;;;;;;;;;;;;;1476386;40;7131;-61
2021/05/16 01:36:47;;;;;;;;;;;;;;;;;;1475610;40;7000;-64
2021/05/16 01:37:51;;;;;;;;;;;;;;;;;;1474860;40;7227;-61
2021/05/16 01:38:53;;;;;;;;;;;;;;;;;;1475019;40;7889;-62
2021/05/16 01:39:56;;;;;;;;;;;;;;;;;;1474857;40;7020;-62
2021/05/16 01:40:58;;;;;;;;;;;;;;;;;;1474996;40;7870;-61
2021/05/16 01:42:01;;;;;;;;;;;;;;;;;;1474838;40;7035;-62
2021/05/16 01:43:08;;;;;;;;;;;;;;;;;;1475030;40;7043;-64
2021/05/16 01:44:13;;;;;;;;;;;;;;;;;;1475043;40;7007;-64
2021/05/16 01:45:17;;;;;;;;;;;;;;;;;;1475240;40;7000;-65
2021/05/16 01:46:19;;;;;;;;;;;;;;;;;;1476295;40;7143;-63
2021/05/16 01:47:22;;;;;;;;;;;;;;;;;;1475206;40;7060;-61
2021/05/16 01:48:24;;;;;;;;;;;;;;;;;;1478756;40;7160;-62
2021/05/16 01:49:27;;;;;;;;;;;;;;;;;;1478917;40;7957;-61
2021/05/16 01:50:31;;;;;;;;;;;;;;;;;;1478043;40;7897;-60
2021/05/16 01:51:33;;;;;;;;;;;;;;;;;;1474894;40;7031;-61
2021/05/16 01:52:38;;;;;;;;;;;;;;;;;;1475111;40;8038;-63
2021/05/16 01:53:41;;;;;;;;;;;;;;;;;;1478623;40;7044;-63
2021/05/16 01:54:43;;;;;;;;;;;;;;;;;;1478307;40;6995;-63
2021/05/16 01:55:46;;;;;;;;;;;;;;;;;;1474803;40;7123;-64
2021/05/16 01:56:49;;;;;;;;;;;;;;;;;;1475021;40;7008;-64
2021/05/16 01:57:51;;;;;;;;;;;;;;;;;;1474820;40;7983;-60
2021/05/16 01:58:56;;;;;;;;;;;;;;;;;;1475043;40;7231;-61
2021/05/16 01:59:58;;;;;;;;;;;;;;;;;;1474892;40;7114;-62
2021/05/16 02:01:02;;;;;;;;;;;;;;;;;;1475093;40;7003;-59
2021/05/16 02:02:05;;;;;;;;;;;;;;;;;;1475009;40;7007;-64
2021/05/16 02:03:07;;;;;;;;;;;;;;;;;;1475058;40;7108;-60
2021/05/16 02:04:10;;;;;;;;;;;;;;;;;;1474969;40;7856;-67
2021/05/16 02:05:14;;;;;;;;;;;;;;;;;;1475457;40;7016;-63
2021/05/16 02:06:17;;;;;;;;;;;;;;;;;;1474735;40;8849;-63
2021/05/16 02:07:20;;;;;;;;;;;;;;;;;;1475157;40;7039;-65
2021/05/16 02:08:23;;;;;;;;;;;;;;;;;;1474840;40;7008;-64
2021/05/16 02:09:27;;;;;;;;;;;;;;;;;;1474798;40;7113;-60
2021/05/16 02:10:30;;;;;;;;;;;;;;;;;;1475157;40;7011;-62
2021/05/16 02:11:32;;;;;;;;;;;;;;;;;;1475251;40;7008;-64
2021/05/16 02:12:35;;;;;;;;;;;;;;;;;;1474951;40;7200;-65
2021/05/16 02:13:41;;;;;;;;;;;;;;;;;;1474978;40;7003;-62
2021/05/16 02:14:45;;;;;;;;;;;;;;;;;;1474654;40;7115;-62
2021/05/16 02:15:47;;;;;;;;;;;;;;;;;;1474923;40;7120;-64
2021/05/16 02:16:50;;;;;;;;;;;;;;;;;;1475555;40;7086;-61
2021/05/16 02:17:54;;;;;;;;;;;;;;;;;;1477080;40;7969;-64
2021/05/16 02:18:57;;;;;;;;;;;;;;;;;;1477347;40;7035;-65
2021/05/16 02:19:59;;;;;;;;;;;;;;;;;;1474653;40;7003;-63
2021/05/16 02:21:05;;;;;;;;;;;;;;;;;;1477979;40;7052;-65
2021/05/16 02:22:08;;;;;;;;;;;;;;;;;;1474595;40;7040;-60
2021/05/16 02:23:11;;;;;;;;;;;;;;;;;;1474464;40;7003;-62
2021/05/16 02:24:14;;;;;;;;;;;;;;;;;;1474494;40;7000;-63
2021/05/16 02:25:17;;;;;;;;;;;;;;;;;;1474597;40;7003;-65
2021/05/16 02:26:19;;;;;;;;;;;;;;;;;;1475642;40;7919;-63
2021/05/16 02:27:22;;;;;;;;;;;;;;;;;;1478625;40;7924;-65
2021/05/16 02:28:24;;;;;;;;;;;;;;;;;;1479097;40;7098;-64
2021/05/16 02:29:28;;;;;;;;;;;;;;;;;;1475133;40;7021;-63
2021/05/16 02:30:30;;;;;;;;;;;;;;;;;;1478050;40;7204;-62
2021/05/16 02:31:33;;;;;;;;;;;;;;;;;;1477882;40;7052;-62
2021/05/16 02:32:36;;;;;;;;;;;;;;;;;;1477918;40;7003;-62
2021/05/16 02:33:38;;;;;;;;;;;;;;;;;;1478883;40;7013;-65
2021/05/16 02:34:40;;;;;;;;;;;;;;;;;;1478427;40;7035;-62
2021/05/16 02:35:43;;;;;;;;;;;;;;;;;;1478032;40;7124;-62
2021/05/16 02:36:45;;;;;;;;;;;;;;;;;;1475857;40;6999;-60
2021/05/16 02:37:48;;;;;;;;;;;;;;;;;;1478066;40;7000;-62
2021/05/16 02:38:51;;;;;;;;;;;;;;;;;;1478942;40;6996;-61
2021/05/16 02:39:53;;;;;;;;;;;;;;;;;;1478700;40;7130;-64
2021/05/16 02:40:56;;;;;;;;;;;;;;;;;;1479332;40;7016;-63
2021/05/16 02:41:58;;;;;;;;;;;;;;;;;;1479110;40;7007;-63
2021/05/16 02:43:01;;;;;;;;;;;;;;;;;;1476612;40;7004;-61
2021/05/16 02:44:04;;;;;;;;;;;;;;;;;;1478761;40;7019;-63
2021/05/16 02:45:07;;;;;;;;;;;;;;;;;;1479328;40;7016;-61
2021/05/16 02:46:10;;;;;;;;;;;;;;;;;;1476515;40;8131;-61
2021/05/16 02:47:12;;;;;;;;;;;;;;;;;;1474839;40;7931;-61
2021/05/16 02:48:15;;;;;;;;;;;;;;;;;;1474848;40;7003;-66
2021/05/16 02:49:17;;;;;;;;;;;;;;;;;;1477861;40;7047;-63
2021/05/16 02:50:20;;;;;;;;;;;;;;;;;;1478757;40;8035;-64
2021/05/16 02:51:22;;;;;;;;;;;;;;;;;;1479156;40;7008;-64
2021/05/16 02:52:25;;;;;;;;;;;;;;;;;;1478898;40;7008;-61
2021/05/16 02:53:27;;;;;;;;;;;;;;;;;;1479352;40;7039;-60
2021/05/16 02:54:29;;;;;;;;;;;;;;;;;;1479201;40;7035;-61
2021/05/16 02:55:32;;;;;;;;;;;;;;;;;;1479348;40;8934;-63
2021/05/16 02:56:34;;;;;;;;;;;;;;;;;;1478930;40;7905;-62
2021/05/16 02:57:37;;;;;;;;;;;;;;;;;;1479141;40;7126;-61
2021/05/16 02:58:39;;;;;;;;;;;;;;;;;;1478665;40;7016;-62
2021/05/16 02:59:42;;;;;;;;;;;;;;;;;;1478925;40;7194;-62
2021/05/16 03:00:44;;;;;;;;;;;;;;;;;;1478811;40;7017;-65
2021/05/16 03:01:47;;;;;;;;;;;;;;;;;;1478945;40;7860;-61
2021/05/16 03:02:49;;;;;;;;;;;;;;;;;;1478920;40;7923;-63
2021/05/16 03:03:52;;;;;;;;;;;;;;;;;;1475788;40;7939;-63
2021/05/16 03:04:54;;;;;;;;;;;;;;;;;;1474714;40;7246;-65
2021/05/16 03:05:57;;;;;;;;;;;;;;;;;;1478364;40;8062;-61
2021/05/16 03:06:59;;;;;;;;;;;;;;;;;;1477908;40;7004;-63
2021/05/16 03:08:02;;;;;;;;;;;;;;;;;;1478977;40;7007;-61
2021/05/16 03:09:05;;;;;;;;;;;;;;;;;;1478777;40;7003;-61
2021/05/16 03:10:08;;;;;;;;;;;;;;;;;;1479173;40;7003;-63
2021/05/16 03:11:10;;;;;;;;;;;;;;;;;;1478869;40;7112;-64
2021/05/16 03:12:13;;;;;;;;;;;;;;;;;;1478818;40;7043;-61
2021/05/16 03:13:16;;;;;;;;;;;;;;;;;;1479172;40;7031;-63
2021/05/16 03:14:18;;;;;;;;;;;;;;;;;;1478916;40;7931;-64
2021/05/16 03:15:21;;;;;;;;;;;;;;;;;;1478917;40;7187;-62
2021/05/16 03:16:23;;;;;;;;;;;;;;;;;;1479209;40;7008;-60
2021/05/16 03:17:26;;;;;;;;;;;;;;;;;;1478773;40;6999;-61
2021/05/16 03:18:28;;;;;;;;;;;;;;;;;;1475471;40;7204;-63
2021/05/16 03:19:31;;;;;;;;;;;;;;;;;;1477540;40;6999;-61
2021/05/16 03:20:34;;;;;;;;;;;;;;;;;;1479317;40;7019;-60
2021/05/16 03:21:36;;;;;;;;;;;;;;;;;;1475981;40;7039;-62
2021/05/16 03:22:39;;;;;;;;;;;;;;;;;;1474701;40;7035;-63
2021/05/16 03:23:41;;;;;;;;;;;;;;;;;;1476806;40;8482;-64
2021/05/16 03:24:44;;;;;;;;;;;;;;;;;;1478457;40;6999;-61
2021/05/16 03:25:46;;;;;;;;;;;;;;;;;;1478469;40;7000;-62
2021/05/16 03:26:49;;;;;;;;;;;;;;;;;;1478464;40;7003;-65
2021/05/16 03:27:52;;;;;;;;;;;;;;;;;;1478496;40;7031;-60
2021/05/16 03:28:54;;;;;;;;;;;;;;;;;;1478821;40;7048;-61
2021/05/16 03:29:56;;;;;;;;;;;;;;;;;;1482351;40;7007;-59
2021/05/16 03:30:59;;;;;;;;;;;;;;;;;;1482451;40;8038;-62
2021/05/16 03:32:01;;;;;;;;;;;;;;;;;;1478824;40;7007;-62
2021/05/16 03:33:05;;;;;;;;;;;;;;;;;;1479256;40;6999;-65
2021/05/16 03:34:07;;;;;;;;;;;;;;;;;;1478837;40;7958;-64
2021/05/16 03:35:12;;;;;;;;;;;;;;;;;;1478046;40;7192;-61
2021/05/16 03:36:14;;;;;;;;;;;;;;;;;;1475114;40;7130;-63
2021/05/16 03:37:16;;;;;;;;;;;;;;;;;;1475064;40;7939;-61
2021/05/16 03:38:19;;;;;;;;;;;;;;;;;;1474909;40;7007;-65
2021/05/16 03:39:21;;;;;;;;;;;;;;;;;;1475118;40;7007;-61
2021/05/16 03:40:24;;;;;;;;;;;;;;;;;;1474888;40;7011;-62
2021/05/16 03:41:26;;;;;;;;;;;;;;;;;;1475064;40;7059;-62
2021/05/16 03:42:29;;;;;;;;;;;;;;;;;;1477945;40;7020;-64
2021/05/16 03:43:31;;;;;;;;;;;;;;;;;;1479083;40;7822;-62
2021/05/16 03:44:34;;;;;;;;;;;;;;;;;;1478381;40;8300;-61
2021/05/16 03:45:36;;;;;;;;;;;;;;;;;;1478713;40;7039;-62
2021/05/16 03:46:39;;;;;;;;;;;;;;;;;;1474847;40;8214;-62
2021/05/16 03:47:41;;;;;;;;;;;;;;;;;;1474700;40;6999;-64
2021/05/16 03:48:44;;;;;;;;;;;;;;;;;;1474761;40;7063;-62
2021/05/16 03:49:46;;;;;;;;;;;;;;;;;;1474579;40;7000;-63
2021/05/16 03:50:48;;;;;;;;;;;;;;;;;;1474464;40;7119;-61
2021/05/16 03:51:51;;;;;;;;;;;;;;;;;;1474605;40;7039;-62
2021/05/16 03:52:54;;;;;;;;;;;;;;;;;;1474656;40;7127;-64
2021/05/16 03:53:56;;;;;;;;;;;;;;;;;;1474875;40;7007;-61
2021/05/16 03:54:59;;;;;;;;;;;;;;;;;;1477425;40;7844;-64
2021/05/16 03:56:01;;;;;;;;;;;;;;;;;;1474957;40;7007;-64
2021/05/16 03:57:03;;;;;;;;;;;;;;;;;;1478253;40;8022;-61
2021/05/16 03:58:06;;;;;;;;;;;;;;;;;;1479448;40;7008;-62
2021/05/16 03:59:08;;;;;;;;;;;;;;;;;;1479046;40;8038;-63
2021/05/16 04:00:11;;;;;;;;;;;;;;;;;;1479280;40;7921;-62
2021/05/16 04:01:14;;;;;;;;;;;;;;;;;;1479088;40;7035;-62
2021/05/16 04:02:16;;;;;;;;;;;;;;;;;;1479341;40;7201;-63
2021/05/16 04:03:19;;;;;;;;;;;;;;;;;;1479026;40;7864;-63
2021/05/16 04:04:21;;;;;;;;;;;;;;;;;;1479416;40;7003;-64
2021/05/16 04:05:24;;;;;;;;;;;;;;;;;;1476652;40;7039;-63
2021/05/16 04:06:26;;;;;;;;;;;;;;;;;;1475168;40;6999;-61
2021/05/16 04:07:28;;;;;;;;;;;;;;;;;;1474964;40;7029;-62
2021/05/16 04:08:31;;;;;;;;;;;;;;;;;;1475295;40;8882;-61
2021/05/16 04:09:33;;;;;;;;;;;;;;;;;;1474890;40;7044;-63
2021/05/16 04:10:36;;;;;;;;;;;;;;;;;;1475436;40;7039;-63
2021/05/16 04:11:38;;;;;;;;;;;;;;;;;;1475241;40;7000;-61
2021/05/16 04:12:40;;;;;;;;;;;;;;;;;;1475345;40;7052;-63
2021/05/16 04:13:43;;;;;;;;;;;;;;;;;;1478715;40;7035;-64
2021/05/16 04:14:49;;;;;;;;;;;;;;;;;;1479563;40;7009;-61
2021/05/16 04:15:51;;;;;;;;;;;;;;;;;;1479169;40;7892;-64
2021/05/16 04:16:54;;;;;;;;;;;;;;;;;;1480843;40;7020;-63
2021/05/16 04:17:57;;;;;;;;;;;;;;;;;;1479333;40;7023;-65
2021/05/16 04:18:59;;;;;;;;;;;;;;;;;;1475631;40;7203;-61
2021/05/16 04:20:02;;;;;;;;;;;;;;;;;;1478965;40;7935;-60
2021/05/16 04:21:06;;;;;;;;;;;;;;;;;;1478501;40;7000;-64
2021/05/16 04:22:09;;;;;;;;;;;;;;;;;;1478127;40;7880;-61
2021/05/16 04:23:11;;;;;;;;;;;;;;;;;;1476272;40;7211;-63
2021/05/16 04:24:14;;;;;;;;;;;;;;;;;;1474738;40;7000;-62
2021/05/16 04:25:16;;;;;;;;;;;;;;;;;;1474770;40;7040;-62
2021/05/16 04:26:18;;;;;;;;;;;;;;;;;;1474732;40;6999;-63
2021/05/16 04:27:21;;;;;;;;;;;;;;;;;;1474928;40;7000;-62
2021/05/16 04:28:23;;;;;;;;;;;;;;;;;;1474926;40;7108;-64
2021/05/16 04:29:26;;;;;;;;;;;;;;;;;;1477753;40;7190;-63
2021/05/16 04:30:28;;;;;;;;;;;;;;;;;;1478105;40;7016;-61
2021/05/16 04:31:31;;;;;;;;;;;;;;;;;;1475381;40;7004;-63
2021/05/16 04:32:34;;;;;;;;;;;;;;;;;;1474805;40;7011;-63
2021/05/16 04:33:36;;;;;;;;;;;;;;;;;;1478852;40;7121;-62
2021/05/16 04:34:38;;;;;;;;;;;;;;;;;;1478434;40;7020;-62
2021/05/16 04:35:42;;;;;;;;;;;;;;;;;;1474830;40;7020;-63
2021/05/16 04:36:44;;;;;;;;;;;;;;;;;;1475174;40;7007;-62
2021/05/16 04:37:46;;;;;;;;;;;;;;;;;;1475315;40;7132;-62
2021/05/16 04:38:49;;;;;;;;;;;;;;;;;;1478443;40;7903;-62
2021/05/16 04:39:51;;;;;;;;;;;;;;;;;;1479379;40;7031;-64
2021/05/16 04:40:54;;;;;;;;;;;;;;;;;;1478964;40;7011;-63
2021/05/16 04:41:56;;;;;;;;;;;;;;;;;;1478965;40;7876;-62
2021/05/16 04:42:59;;;;;;;;;;;;;;;;;;1479297;40;8344;-62
2021/05/16 04:44:02;;;;;;;;;;;;;;;;;;1478987;40;7004;-65
2021/05/16 04:45:05;;;;;;;;;;;;;;;;;;1474426;40;7127;-64
2021/05/16 04:46:08;;;;;;;;;;;;;;;;;;1475246;40;7133;-63
2021/05/16 04:47:10;;;;;;;;;;;;;;;;;;1475065;40;7892;-64
2021/05/16 04:48:12;;;;;;;;;;;;;;;;;;1474983;40;7112;-65
2021/05/16 04:49:15;;;;;;;;;;;;;;;;;;1478577;40;7036;-65
2021/05/16 04:50:18;;;;;;;;;;;;;;;;;;1479157;40;7008;-60
2021/05/16 04:51:21;;;;;;;;;;;;;;;;;;1479179;40;7104;-60
2021/05/16 04:52:23;;;;;;;;;;;;;;;;;;1479253;40;7112;-62
2021/05/16 04:53:29;;;;;;;;;;;;;;;;;;1479272;40;7035;-65
2021/05/16 04:54:31;;;;;;;;;;;;;;;;;;1479021;40;7879;-61
2021/05/16 04:55:34;;;;;;;;;;;;;;;;;;1475562;40;7044;-62
2021/05/16 04:56:36;;;;;;;;;;;;;;;;;;1475316;40;7075;-61
2021/05/16 04:57:39;;;;;;;;;;;;;;;;;;1475107;40;7942;-61
2021/05/16 04:58:41;;;;;;;;;;;;;;;;;;1474956;40;7039;-61
2021/05/16 04:59:48;;;;;;;;;;;;;;;;;;1475376;40;7116;-61
2021/05/16 05:00:51;;;;;;;;;;;;;;;;;;1478645;40;7212;-65
2021/05/16 05:01:53;;;;;;;;;;;;;;;;;;1479212;40;7930;-65
2021/05/16 05:02:57;;;;;;;;;;;;;;;;;;1479373;40;7007;-63
2021/05/16 05:04:00;;;;;;;;;;;;;;;;;;1482741;40;7023;-62
2021/05/16 05:05:03;;;;;;;;;;;;;;;;;;1481756;40;7111;-63
2021/05/16 05:06:06;;;;;;;;;;;;;;;;;;1474989;40;7948;-64
2021/05/16 05:07:08;;;;;;;;;;;;;;;;;;1475403;40;7031;-62
2021/05/16 05:08:11;;;;;;;;;;;;;;;;;;1475023;40;7127;-65
2021/05/16 05:09:13;;;;;;;;;;;;;;;;;;1475687;40;7164;-65
2021/05/16 05:10:16;;;;;;;;;;;;;;;;;;1477416;40;8139;-62
2021/05/16 05:11:18;;;;;;;;;;;;;;;;;;1475575;40;7012;-65
2021/05/16 05:12:20;;;;;;;;;;;;;;;;;;1475905;40;7070;-60
2021/05/16 05:13:24;;;;;;;;;;;;;;;;;;1476034;40;7003;-62
2021/05/16 05:14:28;;;;;;;;;;;;;;;;;;1479023;40;7951;-62
2021/05/16 05:15:31;;;;;;;;;;;;;;;;;;1479603;40;7007;-62
2021/05/16 05:16:33;;;;;;;;;;;;;;;;;;1477020;40;7038;-65
2021/05/16 05:17:39;;;;;;;;;;;;;;;;;;1476097;40;7016;-64
2021/05/16 05:18:41;;;;;;;;;;;;;;;;;;1478874;40;7023;-64
2021/05/16 05:19:43;;;;;;;;;;;;;;;;;;1474410;40;7048;-62
2021/05/16 05:20:47;;;;;;;;;;;;;;;;;;1474563;40;7016;-63
2021/05/16 05:21:49;;;;;;;;;;;;;;;;;;1477594;40;7035;-59
2021/05/16 05:22:52;;;;;;;;;;;;;;;;;;1477365;40;7074;-60
2021/05/16 05:23:54;;;;;;;;;;;;;;;;;;1474656;40;7044;-61
2021/05/16 05:24:56;;;;;;;;;;;;;;;;;;1474478;40;7110;-64
2021/05/16 05:25:59;;;;;;;;;;;;;;;;;;1474925;40;7952;-63
2021/05/16 05:27:01;;;;;;;;;;;;;;;;;;1474964;40;7047;-66
2021/05/16 05:28:04;;;;;;;;;;;;;;;;;;1475094;40;7066;-63
2021/05/16 05:29:06;;;;;;;;;;;;;;;;;;1478453;40;7000;-64
2021/05/16 05:30:10;;;;;;;;;;;;;;;;;;1474797;40;8109;-64
2021/05/16 05:31:12;;;;;;;;;;;;;;;;;;1475525;40;7047;-62
2021/05/16 05:32:14;;;;;;;;;;;;;;;;;;1475704;40;7004;-63
2021/05/16 05:33:19;;;;;;;;;;;;;;;;;;1474831;40;7003;-63
2021/05/16 05:34:24;;;;;;;;;;;;;;;;;;1474854;40;7020;-65
2021/05/16 05:35:27;;;;;;;;;;;;;;;;;;1477981;40;7008;-63
2021/05/16 05:36:29;;;;;;;;;;;;;;;;;;1474965;40;7513;-62
2021/05/16 05:37:32;;;;;;;;;;;;;;;;;;1475354;40;7003;-63
2021/05/16 05:38:34;;;;;;;;;;;;;;;;;;1475326;40;6995;-66
2021/05/16 05:39:37;;;;;;;;;;;;;;;;;;1475037;40;7000;-62
2021/05/16 05:40:39;;;;;;;;;;;;;;;;;;1474837;40;7003;-61
2021/05/16 05:41:44;;;;;;;;;;;;;;;;;;1474790;40;7109;-62
2021/05/16 05:42:47;;;;;;;;;;;;;;;;;;1479101;40;7078;-61
2021/05/16 05:43:49;;;;;;;;;;;;;;;;;;1475885;40;7199;-61
2021/05/16 05:44:52;;;;;;;;;;;;;;;;;;1475898;40;7039;-62
2021/05/16 05:45:55;;;;;;;;;;;;;;;;;;1475553;40;7931;-64
2021/05/16 05:46:57;;;;;;;;;;;;;;;;;;1474802;40;7917;-61
2021/05/16 05:48:00;;;;;;;;;;;;;;;;;;1474823;40;7927;-63
2021/05/16 05:49:03;;;;;;;;;;;;;;;;;;1475881;40;8430;-63
2021/05/16 05:50:06;;;;;;;;;;;;;;;;;;1478959;40;7061;-62
2021/05/16 05:51:08;;;;;;;;;;;;;;;;;;1478984;40;6999;-62
2021/05/16 05:52:20;;;;;;;;;;;;;;;;;;1479028;40;7410;-62
2021/05/16 05:53:26;;;;;;;;;;;;;;;;;;1477610;40;7038;-62
2021/05/16 05:54:28;;;;;;;;;;;;;;;;;;1478571;40;7119;-61
2021/05/16 05:55:32;;;;;;;;;;;;;;;;;;1479031;40;7925;-63
2021/05/16 05:56:35;;;;;;;;;;;;;;;;;;1478535;40;7905;-60
2021/05/16 05:57:38;;;;;;;;;;;;;;;;;;1478537;40;7230;-60
2021/05/16 05:58:40;;;;;;;;;;;;;;;;;;1477789;40;7158;-64
2021/05/16 05:59:43;;;;;;;;;;;;;;;;;;1478832;40;7887;-63
2021/05/16 06:00:45;;;;;;;;;;;;;;;;;;1478909;40;7003;-62
2021/05/16 06:01:48;;;;;;;;;;;;;;;;;;1478643;40;7901;-60
2021/05/16 06:02:51;;;;;;;;;;;;;;;;;;1478950;40;7008;-63
2021/05/16 06:03:53;;;;;;;;;;;;;;;;;;1479080;40;7008;-64
2021/05/16 06:04:56;;;;;;;;;;;;;;;;;;1478794;40;7716;-62
2021/05/16 06:05:58;;;;;;;;;;;;;;;;;;1474818;40;7071;-65
2021/05/16 06:07:01;;;;;;;;;;;;;;;;;;1474981;40;7007;-61
2021/05/16 06:08:03;;;;;;;;;;;;;;;;;;1477007;40;7231;-63
2021/05/16 06:09:06;;;;;;;;;;;;;;;;;;1479109;40;7035;-62
2021/05/16 06:10:08;;;;;;;;;;;;;;;;;;1479151;40;7971;-64
2021/05/16 06:11:10;;;;;;;;;;;;;;;;;;1475085;40;7112;-65
2021/05/16 06:12:14;;;;;;;;;;;;;;;;;;1475053;40;7031;-60
2021/05/16 06:13:17;;;;;;;;;;;;;;;;;;1475153;40;7003;-63
2021/05/16 06:14:19;;;;;;;;;;;;;;;;;;1475560;40;7067;-60
2021/05/16 06:15:24;;;;;;;;;;;;;;;;;;1475188;40;7212;-61
2021/05/16 06:16:26;;;;;;;;;;;;;;;;;;1475294;40;7007;-65
2021/05/16 06:17:29;;;;;;;;;;;;;;;;;;1476266;40;7020;-65
2021/05/16 06:18:31;;;;;;;;;;;;;;;;;;1474591;40;7071;-66
2021/05/16 06:19:33;;;;;;;;;;;;;;;;;;1477500;40;7243;-63
2021/05/16 06:20:36;;;;;;;;;;;;;;;;;;1478593;40;7035;-65
2021/05/16 06:21:38;;;;;;;;;;;;;;;;;;1476313;40;7023;-64
2021/05/16 06:22:41;;;;;;;;;;;;;;;;;;1474560;40;7892;-62
2021/05/16 06:24:00;;;;;;;;;;;;;;;;;;1474515;40;7047;-63
2021/05/16 06:25:03;;;;;;;;;;;;;;;;;;1478109;40;7067;-63
2021/05/16 06:26:06;;;;;;;;;;;;;;;;;;1479237;40;7035;-63
2021/05/16 06:27:08;;;;;;;;;;;;;;;;;;1478812;40;7008;-63
2021/05/16 06:28:10;;;;;;;;;;;;;;;;;;1474780;40;7009;-64
2021/05/16 06:29:14;;;;;;;;;;;;;;;;;;1474353;40;7955;-63
2021/05/16 06:30:17;;;;;;;;;;;;;;;;;;1474588;40;7929;-62
2021/05/16 06:31:20;;;;;;;;;;;;;;;;;;1474514;40;7000;-62
2021/05/16 06:32:22;;;;;;;;;;;;;;;;;;1474748;40;7234;-65
2021/05/16 06:33:25;;;;;;;;;;;;;;;;;;1474663;40;7079;-65
2021/05/16 06:34:27;;;;;;;;;;;;;;;;;;1474726;40;7004;-62
2021/05/16 06:35:30;;;;;;;;;;;;;;;;;;1474208;40;7004;-62
2021/05/16 06:36:32;;;;;;;;;;;;;;;;;;1475031;40;6999;-61
2021/05/16 06:37:35;;;;;;;;;;;;;;;;;;1475732;40;7198;-59
2021/05/16 06:38:38;;;;;;;;;;;;;;;;;;1479141;40;7046;-63
2021/05/16 06:39:40;;;;;;;;;;;;;;;;;;1478921;40;7140;-63
2021/05/16 06:40:43;;;;;;;;;;;;;;;;;;1479352;40;7198;-61
2021/05/16 06:41:45;;;;;;;;;;;;;;;;;;1479317;40;7008;-61
2021/05/16 06:42:48;;;;;;;;;;;;;;;;;;1474904;40;7032;-62
2021/05/16 06:43:51;;;;;;;;;;;;;;;;;;1474693;40;7016;-61
2021/05/16 06:44:53;;;;;;;;;;;;;;;;;;1478070;40;7011;-62
2021/05/16 06:45:56;;;;;;;;;;;;;;;;;;1477323;40;7399;-65
2021/05/16 06:46:58;;;;;;;;;;;;;;;;;;1474713;40;6999;-64
2021/05/16 06:48:00;;;;;;;;;;;;;;;;;;1474646;40;7934;-63
2021/05/16 06:49:03;;;;;;;;;;;;;;;;;;1474746;40;7922;-61
2021/05/16 06:50:06;;;;;;;;;;;;;;;;;;1474529;40;7919;-65
2021/05/16 06:51:10;;;;;;;;;;;;;;;;;;1474820;40;7039;-64
2021/05/16 06:52:12;;;;;;;;;;;;;;;;;;1474860;40;7011;-60
2021/05/16 06:53:15;;;;;;;;;;;;;;;;;;1475122;40;7007;-60
2021/05/16 06:54:17;;;;;;;;;;;;;;;;;;1474808;40;7113;-66
2021/05/16 06:55:20;;;;;;;;;;;;;;;;;;1474785;40;7120;-61
2021/05/16 06:56:22;;;;;;;;;;;;;;;;;;1474870;40;7948;-64
2021/05/16 06:57:25;;;;;;;;;;;;;;;;;;1475107;40;7172;-63
2021/05/16 06:58:28;;;;;;;;;;;;;;;;;;1475104;40;7016;-65
2021/05/16 06:59:30;;;;;;;;;;;;;;;;;;1475087;40;7007;-65
2021/05/16 07:00:33;;;;;;;;;;;;;;;;;;1477827;40;7934;-66
2021/05/16 07:01:35;;;;;;;;;;;;;;;;;;1478436;40;7009;-60
2021/05/16 07:02:37;;;;;;;;;;;;;;;;;;1475493;40;7035;-65
2021/05/16 07:03:42;;;;;;;;;;;;;;;;;;1474657;40;7116;-63
2021/05/16 07:04:46;;;;;;;;;;;;;;;;;;1478690;40;7035;-61
2021/05/16 07:05:49;;;;;;;;;;;;;;;;;;1479070;40;7019;-60
2021/05/16 07:06:51;;;;;;;;;;;;;;;;;;1478781;40;7795;-60
2021/05/16 07:07:54;;;;;;;;;;;;;;;;;;1478839;40;7016;-65
2021/05/16 07:08:56;;;;;;;;;;;;;;;;;;1478843;40;7047;-62
2021/05/16 07:09:59;;;;;;;;;;;;;;;;;;1478928;40;7023;-60
2021/05/16 07:11:02;;;;;;;;;;;;;;;;;;1478698;40;7039;-62
2021/05/16 07:12:05;;;;;;;;;;;;;;;;;;1478890;40;7951;-62
2021/05/16 07:13:07;;;;;;;;;;;;;;;;;;1482281;40;7027;-61
2021/05/16 07:14:10;;;;;;;;;;;;;;;;;;1482346;40;7911;-65
2021/05/16 07:15:13;;;;;;;;;;;;;;;;;;1478698;40;7112;-66
2021/05/16 07:16:16;;;;;;;;;;;;;;;;;;1478875;40;7878;-64
2021/05/16 07:17:18;;;;;;;;;;;;;;;;;;1479172;40;7027;-62